Portland — WDG2201 — position and weather

sailwx.info

Track history (hours):
 
Tides and Currents Weather Stations Pressure Air Temp Water Temp Dewpoint Dewpoint Depression Visibility Wind Speed Wind Dir Waves Ship Positions

Portland

Owner: Shaver Transportation Company, Portland, OR. More information available from US FCC via Universal Licensing System and Coast Guard Vessel Documentation Center.

Last reported at 2017-Jan-23 01:29 UTC. Time now 2017-Jan-23 02:34 UTC.
Position N 45°38' W 122°44'.

Length 27 m; draft 4 m.

Type: Towing. MMSI: 367315814.

Date/timePositionNaut miles runAvg speedWind from/ knotsBaromVisibWave heightAir tempDewpointWater temp
2017-Jan-23 01:29N 45°38' W 122°44'1 1.5
2017-Jan-23 00:33N 45°39' W 122°45'1 0.5
2017-Jan-22 23:31N 45°39' W 122°45'0 0.1
2017-Jan-22 22:33N 45°39' W 122°45'9 9.3
2017-Jan-22 21:33N 45°48' W 122°47'1010.1
2017-Jan-22 20:34N 45°58' W 122°49'9 8.7
2017-Jan-22 19:31N 46°05' W 122°56'0 0.0
2017-Jan-22 18:31N 46°05' W 122°56'0 0.0
2017-Jan-22 17:28N 46°05' W 122°56'0 0.0
2017-Jan-22 16:31N 46°05' W 122°56'0 0.0
2017-Jan-22 15:31N 46°05' W 122°56'0 0.0
2017-Jan-22 14:28N 46°05' W 122°56'4 4.8
2017-Jan-22 13:34N 46°02' W 122°53'2 2.3
2017-Jan-22 12:33N 46°04' W 122°53'3 2.9
2017-Jan-22 11:32N 46°06' W 122°56'1 0.6
2017-Jan-22 10:31N 46°05' W 122°56'0 0.0
2017-Jan-22 09:31N 46°05' W 122°56'1 0.9
2017-Jan-22 08:29N 46°06' W 122°57'1 1.0
2017-Jan-22 07:32N 46°05' W 122°56'0 0.0
2017-Jan-22 06:32N 46°05' W 122°56'0 0.0
2017-Jan-22 05:32N 46°05' W 122°56'0 0.0
2017-Jan-22 04:32N 46°05' W 122°56'0 0.0
2017-Jan-22 03:32N 46°05' W 122°56'1 0.8
2017-Jan-22 02:31N 46°06' W 122°57'1 0.8
2017-Jan-22 01:29N 46°05' W 122°56'0 0.0
2017-Jan-22 00:27N 46°05' W 122°56'0 0.0
2017-Jan-21 23:32N 46°05' W 122°56'0 0.0
2017-Jan-21 22:29N 46°05' W 122°56'0 0.0
2017-Jan-21 21:32N 46°05' W 122°56'0 0.0
2017-Jan-21 20:26N 46°05' W 122°56'0 0.0
2017-Jan-21 19:32N 46°05' W 122°56'0 0.0
2017-Jan-21 18:32N 46°05' W 122°56'0 0.0
2017-Jan-21 17:29N 46°05' W 122°56'0 0.0
2017-Jan-21 16:34N 46°05' W 122°56'2 2.0
2017-Jan-21 15:33N 46°07' W 122°58'0 0.2
2017-Jan-21 14:33N 46°07' W 122°58'0 0.4
2017-Jan-21 13:33N 46°07' W 122°58'2 1.7
2017-Jan-21 12:31N 46°05' W 122°56'0 0.0
2017-Jan-21 11:31N 46°05' W 122°56'0 0.0
2017-Jan-21 10:31N 46°05' W 122°56'0 0.0
2017-Jan-21 09:31N 46°05' W 122°56'0 0.0
2017-Jan-21 08:31N 46°05' W 122°56'0 0.0
2017-Jan-21 07:31N 46°05' W 122°56'0 0.0
2017-Jan-21 06:31N 46°05' W 122°56'0 0.0
2017-Jan-21 05:31N 46°05' W 122°56'0 0.0
2017-Jan-21 04:31N 46°05' W 122°56'0 0.0
2017-Jan-21 03:31N 46°05' W 122°56'0 0.0
2017-Jan-21 02:31N 46°05' W 122°56'1 0.7
2017-Jan-21 01:33N 46°06' W 122°56'1 0.6
2017-Jan-21 00:31N 46°05' W 122°56'0 0.0
2017-Jan-20 23:31N 46°05' W 122°56'0 0.0
2017-Jan-20 22:31N 46°05' W 122°56'0 0.0
2017-Jan-20 21:31N 46°05' W 122°56'0 0.0
2017-Jan-20 20:31N 46°05' W 122°56'0 0.0
2017-Jan-20 19:31N 46°05' W 122°56'0 0.0
2017-Jan-20 18:31N 46°05' W 122°56'0 0.0
2017-Jan-20 17:33N 46°05' W 122°56'4 4.0
2017-Jan-20 16:33N 46°08' W 123°00'0 0.4
2017-Jan-20 15:33N 46°08' W 123°00'4 3.6
2017-Jan-20 14:33N 46°05' W 122°56'0 0.2
2017-Jan-20 13:34N 46°06' W 122°56'2 1.6
2017-Jan-20 12:34N 46°07' W 122°58'0 0.0
2017-Jan-20 11:34N 46°07' W 122°58'0 0.0
2017-Jan-20 10:34N 46°07' W 122°58'0 0.1
2017-Jan-20 09:34N 46°07' W 122°58'2 1.6
2017-Jan-20 08:33N 46°05' W 122°56'0 0.1
2017-Jan-20 07:32N 46°05' W 122°56'0 0.0
2017-Jan-20 06:32N 46°05' W 122°56'0 0.0
2017-Jan-20 05:32N 46°05' W 122°56'0 0.0
2017-Jan-20 04:32N 46°05' W 122°56'0 0.0
2017-Jan-20 03:32N 46°05' W 122°56'0 0.0
2017-Jan-20 02:32N 46°05' W 122°56'0 0.0
2017-Jan-20 01:32N 46°05' W 122°56'0 0.0
2017-Jan-20 00:32N 46°05' W 122°56'0 0.0
2017-Jan-19 23:32N 46°05' W 122°56'0 0.0
2017-Jan-19 22:32N 46°05' W 122°56'0 0.0
2017-Jan-19 21:29N 46°05' W 122°56'0 0.0
2017-Jan-19 20:32N 46°05' W 122°56'0 0.0
2017-Jan-19 19:32N 46°05' W 122°56'0 0.0
2017-Jan-19 18:32N 46°05' W 122°56'0 0.0
2017-Jan-19 17:32N 46°05' W 122°56'0 0.0
2017-Jan-19 16:32N 46°05' W 122°56'0 0.0
2017-Jan-19 15:32N 46°05' W 122°56'0 0.0
2017-Jan-19 14:32N 46°05' W 122°56'0 0.0
2017-Jan-19 13:32N 46°05' W 122°56'0 0.0
2017-Jan-19 12:32N 46°05' W 122°56'0 0.0
2017-Jan-19 11:32N 46°05' W 122°56'0 0.0
2017-Jan-19 10:32N 46°05' W 122°56'0 0.0
2017-Jan-19 09:32N 46°05' W 122°56'0 0.0
2017-Jan-19 08:29N 46°05' W 122°56'0 0.0
2017-Jan-19 07:32N 46°05' W 122°56'0 0.0
2017-Jan-19 06:32N 46°05' W 122°56'0 0.0
2017-Jan-19 05:32N 46°05' W 122°56'0 0.0
2017-Jan-19 04:32N 46°05' W 122°56'0 0.0
2017-Jan-19 03:32N 46°05' W 122°56'0 0.0
2017-Jan-19 02:32N 46°05' W 122°56'0 0.0
2017-Jan-19 01:32N 46°05' W 122°56'0 0.0
2017-Jan-19 00:32N 46°05' W 122°56'0 0.0
2017-Jan-18 23:32N 46°05' W 122°56'0 0.0
2017-Jan-18 22:29N 46°05' W 122°56'0 0.0
2017-Jan-18 21:32N 46°05' W 122°56'0 0.0
2017-Jan-18 20:29N 46°05' W 122°56'0 0.0
2017-Jan-18 19:32N 46°05' W 122°56'0 0.0
2017-Jan-18 18:29N 46°05' W 122°56'0 0.0
2017-Jan-18 17:32N 46°05' W 122°56'0 0.0
2017-Jan-18 16:32N 46°05' W 122°56'0 0.0
2017-Jan-18 15:32N 46°05' W 122°56'0 0.0
2017-Jan-18 14:32N 46°05' W 122°56'0 0.0
2017-Jan-18 13:32N 46°05' W 122°56'0 0.0
2017-Jan-18 12:32N 46°05' W 122°56'0 0.0
2017-Jan-18 11:32N 46°05' W 122°56'0 0.0
2017-Jan-18 10:32N 46°05' W 122°56'0 0.0
2017-Jan-18 09:29N 46°05' W 122°56'0 0.0
2017-Jan-18 08:32N 46°05' W 122°56'0 0.0
2017-Jan-18 07:32N 46°05' W 122°56'0 0.0
2017-Jan-18 06:32N 46°05' W 122°56'0 0.0
2017-Jan-18 05:32N 46°05' W 122°56'0 0.0
2017-Jan-18 04:32N 46°05' W 122°56'0 0.0
2017-Jan-18 03:29N 46°05' W 122°56'15 2.4
2017-Jan-17 21:17N 45°52' W 122°47'7 9.9
2017-Jan-17 20:34N 45°45' W 122°46'6 5.9
2017-Jan-17 19:33N 45°39' W 122°45'0 0.0
2017-Jan-17 18:29N 45°39' W 122°45'0 0.0
2017-Jan-17 17:29N 45°39' W 122°45'0 0.0
2017-Jan-17 16:32N 45°39' W 122°45'0 0.0
2017-Jan-17 15:32N 45°39' W 122°45'3 2.6
2017-Jan-17 14:33N 45°38' W 122°42'2 2.3
2017-Jan-17 13:33N 45°39' W 122°45'0 0.3
2017-Jan-17 12:33N 45°39' W 122°45'0 0.0
2017-Jan-17 11:33N 45°39' W 122°45'0 0.0
2017-Jan-17 10:33N 45°39' W 122°45'0 0.0
2017-Jan-17 09:33N 45°39' W 122°45'0 0.0
2017-Jan-17 08:33N 45°39' W 122°45'0 0.0
2017-Jan-17 07:33N 45°39' W 122°45'0 0.0
2017-Jan-17 06:33N 45°39' W 122°45'1 0.5
2017-Jan-17 05:33N 45°39' W 122°44'1 0.5
2017-Jan-17 04:33N 45°39' W 122°44'1 0.9
2017-Jan-17 03:29N 45°39' W 122°45'0 0.0
2017-Jan-17 02:32N 45°39' W 122°45'0 0.0
2017-Jan-17 01:32N 45°39' W 122°45'0 0.0
2017-Jan-17 00:29N 45°39' W 122°45'0 0.0
2017-Jan-16 23:32N 45°39' W 122°45'0 0.0
2017-Jan-16 22:32N 45°39' W 122°45'0 0.0
2017-Jan-16 21:32N 45°39' W 122°45'0 0.0
2017-Jan-16 20:29N 45°39' W 122°45'0 0.0
2017-Jan-16 19:32N 45°39' W 122°45'0 0.0
2017-Jan-16 18:33N 45°39' W 122°45'0 0.0
2017-Jan-16 17:32N 45°39' W 122°45'0 0.0
2017-Jan-16 16:32N 45°39' W 122°45'0 0.0
2017-Jan-16 11:27N 45°39' W 122°45'0 0.0
2017-Jan-16 10:30N 45°39' W 122°45'0 0.0
2017-Jan-16 09:30N 45°39' W 122°45'0 0.0
2017-Jan-16 08:33N 45°39' W 122°45'0 0.0
2017-Jan-16 07:33N 45°39' W 122°45'0 0.0
2017-Jan-16 06:30N 45°39' W 122°45'0 0.0
2017-Jan-16 05:33N 45°39' W 122°45'0 0.0
2017-Jan-16 04:33N 45°39' W 122°45'0 0.0
2017-Jan-16 03:33N 45°39' W 122°45'0 0.0
2017-Jan-16 02:30N 45°39' W 122°45'0 0.0
2017-Jan-16 01:33N 45°39' W 122°45'0 0.0
2017-Jan-16 00:33N 45°39' W 122°45'0 0.0
2017-Jan-15 23:33N 45°39' W 122°45'0 0.2
2017-Jan-15 22:34N 45°39' W 122°45'2 2.4
2017-Jan-15 21:33N 45°38' W 122°42'2 2.4
2017-Jan-15 20:34N 45°39' W 122°45'0 0.2
2017-Jan-15 19:28N 45°39' W 122°45'0 0.0
2017-Jan-15 18:27N 45°39' W 122°45'0 0.0
2017-Jan-15 17:33N 45°39' W 122°45'0 0.0
2017-Jan-15 16:33N 45°39' W 122°45'0 0.0
2017-Jan-15 15:33N 45°39' W 122°45'0 0.0
2017-Jan-15 14:33N 45°39' W 122°45'0 0.0
2017-Jan-15 13:33N 45°39' W 122°45'0 0.0
2017-Jan-15 12:33N 45°39' W 122°45'0 0.0
2017-Jan-15 11:33N 45°39' W 122°45'1 1.2
2017-Jan-15 10:33N 45°38' W 122°47'1 1.2
2017-Jan-15 09:33N 45°39' W 122°45'0 0.0
2017-Jan-15 08:33N 45°39' W 122°45'0 0.0
2017-Jan-15 07:33N 45°39' W 122°45'0 0.0
2017-Jan-15 06:33N 45°39' W 122°45'0 0.0
2017-Jan-15 05:33N 45°39' W 122°45'0 0.0
2017-Jan-15 04:33N 45°39' W 122°45'0 0.0
2017-Jan-15 03:30N 45°39' W 122°45'0 0.0
2017-Jan-15 02:33N 45°39' W 122°45'0 0.0
2017-Jan-15 01:33N 45°39' W 122°45'1 0.5
2017-Jan-15 00:33N 45°39' W 122°44'0 0.1
2017-Jan-14 23:33N 45°39' W 122°44'0 0.2
2017-Jan-14 22:34N 45°39' W 122°44'0 0.2
2017-Jan-14 21:33N 45°39' W 122°44'1 0.5
2017-Jan-14 20:31N 45°39' W 122°45'0 0.0
2017-Jan-14 19:31N 45°39' W 122°45'0 0.0
2017-Jan-14 18:31N 45°39' W 122°45'0 0.0
2017-Jan-14 17:31N 45°39' W 122°45'0 0.0
2017-Jan-14 16:31N 45°39' W 122°45'0 0.0
2017-Jan-14 15:31N 45°39' W 122°45'0 0.0
2017-Jan-14 14:31N 45°39' W 122°45'0 0.0
2017-Jan-14 13:31N 45°39' W 122°45'0 0.0
2017-Jan-14 12:31N 45°39' W 122°45'0 0.0
2017-Jan-14 11:31N 45°39' W 122°45'0 0.0
2017-Jan-14 10:31N 45°39' W 122°45'0 0.0
2017-Jan-14 09:32N 45°39' W 122°45'0 0.0
2017-Jan-14 08:31N 45°39' W 122°45'0 0.0
2017-Jan-14 07:31N 45°39' W 122°45'0 0.0
2017-Jan-14 06:31N 45°39' W 122°45'0 0.0
2017-Jan-14 05:31N 45°39' W 122°45'0 0.0
2017-Jan-14 04:31N 45°39' W 122°45'0 0.0
2017-Jan-14 03:25N 45°39' W 122°45'0 0.0
2017-Jan-13 23:31N 45°39' W 122°45'2 2.6
2017-Jan-13 22:33N 45°38' W 122°42'0 0.0
2017-Jan-13 21:33N 45°38' W 122°42'0 0.0
2017-Jan-13 20:33N 45°38' W 122°42'3 2.4
2017-Jan-13 19:32N 45°39' W 122°45'0 0.0
2017-Jan-13 18:33N 45°39' W 122°45'0 0.0
2017-Jan-13 17:33N 45°39' W 122°45'0 0.0
2017-Jan-13 16:33N 45°39' W 122°45'0 0.0
2017-Jan-13 15:33N 45°39' W 122°45'0 0.0
2017-Jan-13 14:33N 45°39' W 122°45'0 0.0
2017-Jan-13 13:33N 45°39' W 122°45'0 0.0
2017-Jan-13 12:30N 45°39' W 122°45'0 0.0
2017-Jan-13 11:33N 45°39' W 122°45'0 0.0
2017-Jan-13 10:33N 45°39' W 122°45'0 0.0
2017-Jan-13 09:33N 45°39' W 122°45'0 0.0
2017-Jan-13 08:33N 45°39' W 122°45'0 0.0
2017-Jan-13 07:33N 45°39' W 122°45'0 0.0
2017-Jan-13 06:30N 45°39' W 122°45'0 0.0
2017-Jan-13 05:33N 45°39' W 122°45'0 0.0
2017-Jan-13 04:30N 45°39' W 122°45'0 0.0
2017-Jan-13 03:30N 45°39' W 122°45'0 0.0
2017-Jan-13 02:33N 45°39' W 122°45'0 0.0
2017-Jan-13 01:30N 45°39' W 122°45'  
Track history (hours):
 
Tides and Currents Weather Stations Pressure Air Temp Water Temp Dewpoint Dewpoint Depression Visibility Wind Speed Wind Dir Waves Ship Positions

Portland

Owner: Shaver Transportation Company, Portland, OR. More information available from US FCC via Universal Licensing System and Coast Guard Vessel Documentation Center.

Last reported at 2017-Jan-23 01:29 UTC. Time now 2017-Jan-23 02:34 UTC.
Position N 45°38' W 122°44'.

Length 27 m; draft 4 m.

Type: Towing. MMSI: 367315814.

Date/timePositionNaut miles runAvg speedWind from/ knotsBaromVisibWave heightAir tempDewpointWater temp
2017-Jan-23 01:29N 45°38' W 122°44'1 1.5
2017-Jan-23 00:33N 45°39' W 122°45'1 0.5
2017-Jan-22 23:31N 45°39' W 122°45'0 0.1
2017-Jan-22 22:33N 45°39' W 122°45'9 9.3
2017-Jan-22 21:33N 45°48' W 122°47'1010.1
2017-Jan-22 20:34N 45°58' W 122°49'9 8.7
2017-Jan-22 19:31N 46°05' W 122°56'0 0.0
2017-Jan-22 18:31N 46°05' W 122°56'0 0.0
2017-Jan-22 17:28N 46°05' W 122°56'0 0.0
2017-Jan-22 16:31N 46°05' W 122°56'0 0.0
2017-Jan-22 15:31N 46°05' W 122°56'0 0.0
2017-Jan-22 14:28N 46°05' W 122°56'4 4.8
2017-Jan-22 13:34N 46°02' W 122°53'2 2.3
2017-Jan-22 12:33N 46°04' W 122°53'3 2.9
2017-Jan-22 11:32N 46°06' W 122°56'1 0.6
2017-Jan-22 10:31N 46°05' W 122°56'0 0.0
2017-Jan-22 09:31N 46°05' W 122°56'1 0.9
2017-Jan-22 08:29N 46°06' W 122°57'1 1.0
2017-Jan-22 07:32N 46°05' W 122°56'0 0.0
2017-Jan-22 06:32N 46°05' W 122°56'0 0.0
2017-Jan-22 05:32N 46°05' W 122°56'0 0.0
2017-Jan-22 04:32N 46°05' W 122°56'0 0.0
2017-Jan-22 03:32N 46°05' W 122°56'1 0.8
2017-Jan-22 02:31N 46°06' W 122°57'1 0.8
2017-Jan-22 01:29N 46°05' W 122°56'0 0.0
2017-Jan-22 00:27N 46°05' W 122°56'0 0.0
2017-Jan-21 23:32N 46°05' W 122°56'0 0.0
2017-Jan-21 22:29N 46°05' W 122°56'0 0.0
2017-Jan-21 21:32N 46°05' W 122°56'0 0.0
2017-Jan-21 20:26N 46°05' W 122°56'0 0.0
2017-Jan-21 19:32N 46°05' W 122°56'0 0.0
2017-Jan-21 18:32N 46°05' W 122°56'0 0.0
2017-Jan-21 17:29N 46°05' W 122°56'0 0.0
2017-Jan-21 16:34N 46°05' W 122°56'2 2.0
2017-Jan-21 15:33N 46°07' W 122°58'0 0.2
2017-Jan-21 14:33N 46°07' W 122°58'0 0.4
2017-Jan-21 13:33N 46°07' W 122°58'2 1.7
2017-Jan-21 12:31N 46°05' W 122°56'0 0.0
2017-Jan-21 11:31N 46°05' W 122°56'0 0.0
2017-Jan-21 10:31N 46°05' W 122°56'0 0.0
2017-Jan-21 09:31N 46°05' W 122°56'0 0.0
2017-Jan-21 08:31N 46°05' W 122°56'0 0.0
2017-Jan-21 07:31N 46°05' W 122°56'0 0.0
2017-Jan-21 06:31N 46°05' W 122°56'0 0.0
2017-Jan-21 05:31N 46°05' W 122°56'0 0.0
2017-Jan-21 04:31N 46°05' W 122°56'0 0.0
2017-Jan-21 03:31N 46°05' W 122°56'0 0.0
2017-Jan-21 02:31N 46°05' W 122°56'1 0.7
2017-Jan-21 01:33N 46°06' W 122°56'1 0.6
2017-Jan-21 00:31N 46°05' W 122°56'0 0.0
2017-Jan-20 23:31N 46°05' W 122°56'0 0.0
2017-Jan-20 22:31N 46°05' W 122°56'0 0.0
2017-Jan-20 21:31N 46°05' W 122°56'0 0.0
2017-Jan-20 20:31N 46°05' W 122°56'0 0.0
2017-Jan-20 19:31N 46°05' W 122°56'0 0.0
2017-Jan-20 18:31N 46°05' W 122°56'0 0.0
2017-Jan-20 17:33N 46°05' W 122°56'4 4.0
2017-Jan-20 16:33N 46°08' W 123°00'0 0.4
2017-Jan-20 15:33N 46°08' W 123°00'4 3.6
2017-Jan-20 14:33N 46°05' W 122°56'0 0.2
2017-Jan-20 13:34N 46°06' W 122°56'2 1.6
2017-Jan-20 12:34N 46°07' W 122°58'0 0.0
2017-Jan-20 11:34N 46°07' W 122°58'0 0.0
2017-Jan-20 10:34N 46°07' W 122°58'0 0.1
2017-Jan-20 09:34N 46°07' W 122°58'2 1.6
2017-Jan-20 08:33N 46°05' W 122°56'0 0.1
2017-Jan-20 07:32N 46°05' W 122°56'0 0.0
2017-Jan-20 06:32N 46°05' W 122°56'0 0.0
2017-Jan-20 05:32N 46°05' W 122°56'0 0.0
2017-Jan-20 04:32N 46°05' W 122°56'0 0.0
2017-Jan-20 03:32N 46°05' W 122°56'0 0.0
2017-Jan-20 02:32N 46°05' W 122°56'0 0.0
2017-Jan-20 01:32N 46°05' W 122°56'0 0.0
2017-Jan-20 00:32N 46°05' W 122°56'0 0.0
2017-Jan-19 23:32N 46°05' W 122°56'0 0.0
2017-Jan-19 22:32N 46°05' W 122°56'0 0.0
2017-Jan-19 21:29N 46°05' W 122°56'0 0.0
2017-Jan-19 20:32N 46°05' W 122°56'0 0.0
2017-Jan-19 19:32N 46°05' W 122°56'0 0.0
2017-Jan-19 18:32N 46°05' W 122°56'0 0.0
2017-Jan-19 17:32N 46°05' W 122°56'0 0.0
2017-Jan-19 16:32N 46°05' W 122°56'0 0.0
2017-Jan-19 15:32N 46°05' W 122°56'0 0.0
2017-Jan-19 14:32N 46°05' W 122°56'0 0.0
2017-Jan-19 13:32N 46°05' W 122°56'0 0.0
2017-Jan-19 12:32N 46°05' W 122°56'0 0.0
2017-Jan-19 11:32N 46°05' W 122°56'0 0.0
2017-Jan-19 10:32N 46°05' W 122°56'0 0.0
2017-Jan-19 09:32N 46°05' W 122°56'0 0.0
2017-Jan-19 08:29N 46°05' W 122°56'0 0.0
2017-Jan-19 07:32N 46°05' W 122°56'0 0.0
2017-Jan-19 06:32N 46°05' W 122°56'0 0.0
2017-Jan-19 05:32N 46°05' W 122°56'0 0.0
2017-Jan-19 04:32N 46°05' W 122°56'0 0.0
2017-Jan-19 03:32N 46°05' W 122°56'0 0.0
2017-Jan-19 02:32N 46°05' W 122°56'0 0.0
2017-Jan-19 01:32N 46°05' W 122°56'0 0.0
2017-Jan-19 00:32N 46°05' W 122°56'0 0.0
2017-Jan-18 23:32N 46°05' W 122°56'0 0.0
2017-Jan-18 22:29N 46°05' W 122°56'0 0.0
2017-Jan-18 21:32N 46°05' W 122°56'0 0.0
2017-Jan-18 20:29N 46°05' W 122°56'0 0.0
2017-Jan-18 19:32N 46°05' W 122°56'0 0.0
2017-Jan-18 18:29N 46°05' W 122°56'0 0.0
2017-Jan-18 17:32N 46°05' W 122°56'0 0.0
2017-Jan-18 16:32N 46°05' W 122°56'0 0.0
2017-Jan-18 15:32N 46°05' W 122°56'0 0.0
2017-Jan-18 14:32N 46°05' W 122°56'0 0.0
2017-Jan-18 13:32N 46°05' W 122°56'0 0.0
2017-Jan-18 12:32N 46°05' W 122°56'0 0.0
2017-Jan-18 11:32N 46°05' W 122°56'0 0.0
2017-Jan-18 10:32N 46°05' W 122°56'0 0.0
2017-Jan-18 09:29N 46°05' W 122°56'0 0.0
2017-Jan-18 08:32N 46°05' W 122°56'0 0.0
2017-Jan-18 07:32N 46°05' W 122°56'0 0.0
2017-Jan-18 06:32N 46°05' W 122°56'0 0.0
2017-Jan-18 05:32N 46°05' W 122°56'0 0.0
2017-Jan-18 04:32N 46°05' W 122°56'0 0.0
2017-Jan-18 03:29N 46°05' W 122°56'15 2.4
2017-Jan-17 21:17N 45°52' W 122°47'7 9.9
2017-Jan-17 20:34N 45°45' W 122°46'6 5.9
2017-Jan-17 19:33N 45°39' W 122°45'0 0.0
2017-Jan-17 18:29N 45°39' W 122°45'0 0.0
2017-Jan-17 17:29N 45°39' W 122°45'0 0.0
2017-Jan-17 16:32N 45°39' W 122°45'0 0.0
2017-Jan-17 15:32N 45°39' W 122°45'3 2.6
2017-Jan-17 14:33N 45°38' W 122°42'2 2.3
2017-Jan-17 13:33N 45°39' W 122°45'0 0.3
2017-Jan-17 12:33N 45°39' W 122°45'0 0.0
2017-Jan-17 11:33N 45°39' W 122°45'0 0.0
2017-Jan-17 10:33N 45°39' W 122°45'0 0.0
2017-Jan-17 09:33N 45°39' W 122°45'0 0.0
2017-Jan-17 08:33N 45°39' W 122°45'0 0.0
2017-Jan-17 07:33N 45°39' W 122°45'0 0.0
2017-Jan-17 06:33N 45°39' W 122°45'1 0.5
2017-Jan-17 05:33N 45°39' W 122°44'1 0.5
2017-Jan-17 04:33N 45°39' W 122°44'1 0.9
2017-Jan-17 03:29N 45°39' W 122°45'0 0.0
2017-Jan-17 02:32N 45°39' W 122°45'0 0.0
2017-Jan-17 01:32N 45°39' W 122°45'0 0.0
2017-Jan-17 00:29N 45°39' W 122°45'0 0.0
2017-Jan-16 23:32N 45°39' W 122°45'0 0.0
2017-Jan-16 22:32N 45°39' W 122°45'0 0.0
2017-Jan-16 21:32N 45°39' W 122°45'0 0.0
2017-Jan-16 20:29N 45°39' W 122°45'0 0.0
2017-Jan-16 19:32N 45°39' W 122°45'0 0.0
2017-Jan-16 18:33N 45°39' W 122°45'0 0.0
2017-Jan-16 17:32N 45°39' W 122°45'0 0.0
2017-Jan-16 16:32N 45°39' W 122°45'0 0.0
2017-Jan-16 11:27N 45°39' W 122°45'0 0.0
2017-Jan-16 10:30N 45°39' W 122°45'0 0.0
2017-Jan-16 09:30N 45°39' W 122°45'0 0.0
2017-Jan-16 08:33N 45°39' W 122°45'0 0.0
2017-Jan-16 07:33N 45°39' W 122°45'0 0.0
2017-Jan-16 06:30N 45°39' W 122°45'0 0.0
2017-Jan-16 05:33N 45°39' W 122°45'0 0.0
2017-Jan-16 04:33N 45°39' W 122°45'0 0.0
2017-Jan-16 03:33N 45°39' W 122°45'0 0.0
2017-Jan-16 02:30N 45°39' W 122°45'0 0.0
2017-Jan-16 01:33N 45°39' W 122°45'0 0.0
2017-Jan-16 00:33N 45°39' W 122°45'0 0.0
2017-Jan-15 23:33N 45°39' W 122°45'0 0.2
2017-Jan-15 22:34N 45°39' W 122°45'2 2.4
2017-Jan-15 21:33N 45°38' W 122°42'2 2.4
2017-Jan-15 20:34N 45°39' W 122°45'0 0.2
2017-Jan-15 19:28N 45°39' W 122°45'0 0.0
2017-Jan-15 18:27N 45°39' W 122°45'0 0.0
2017-Jan-15 17:33N 45°39' W 122°45'0 0.0
2017-Jan-15 16:33N 45°39' W 122°45'0 0.0
2017-Jan-15 15:33N 45°39' W 122°45'0 0.0
2017-Jan-15 14:33N 45°39' W 122°45'0 0.0
2017-Jan-15 13:33N 45°39' W 122°45'0 0.0
2017-Jan-15 12:33N 45°39' W 122°45'0 0.0
2017-Jan-15 11:33N 45°39' W 122°45'1 1.2
2017-Jan-15 10:33N 45°38' W 122°47'1 1.2
2017-Jan-15 09:33N 45°39' W 122°45'0 0.0
2017-Jan-15 08:33N 45°39' W 122°45'0 0.0
2017-Jan-15 07:33N 45°39' W 122°45'0 0.0
2017-Jan-15 06:33N 45°39' W 122°45'0 0.0
2017-Jan-15 05:33N 45°39' W 122°45'0 0.0
2017-Jan-15 04:33N 45°39' W 122°45'0 0.0
2017-Jan-15 03:30N 45°39' W 122°45'0 0.0
2017-Jan-15 02:33N 45°39' W 122°45'0 0.0
2017-Jan-15 01:33N 45°39' W 122°45'1 0.5
2017-Jan-15 00:33N 45°39' W 122°44'0 0.1
2017-Jan-14 23:33N 45°39' W 122°44'0 0.2
2017-Jan-14 22:34N 45°39' W 122°44'0 0.2
2017-Jan-14 21:33N 45°39' W 122°44'1 0.5
2017-Jan-14 20:31N 45°39' W 122°45'0 0.0
2017-Jan-14 19:31N 45°39' W 122°45'0 0.0
2017-Jan-14 18:31N 45°39' W 122°45'0 0.0
2017-Jan-14 17:31N 45°39' W 122°45'0 0.0
2017-Jan-14 16:31N 45°39' W 122°45'0 0.0
2017-Jan-14 15:31N 45°39' W 122°45'0 0.0
2017-Jan-14 14:31N 45°39' W 122°45'0 0.0
2017-Jan-14 13:31N 45°39' W 122°45'0 0.0
2017-Jan-14 12:31N 45°39' W 122°45'0 0.0
2017-Jan-14 11:31N 45°39' W 122°45'0 0.0
2017-Jan-14 10:31N 45°39' W 122°45'0 0.0
2017-Jan-14 09:32N 45°39' W 122°45'0 0.0
2017-Jan-14 08:31N 45°39' W 122°45'0 0.0
2017-Jan-14 07:31N 45°39' W 122°45'0 0.0
2017-Jan-14 06:31N 45°39' W 122°45'0 0.0
2017-Jan-14 05:31N 45°39' W 122°45'0 0.0
2017-Jan-14 04:31N 45°39' W 122°45'0 0.0
2017-Jan-14 03:25N 45°39' W 122°45'0 0.0
2017-Jan-13 23:31N 45°39' W 122°45'2 2.6
2017-Jan-13 22:33N 45°38' W 122°42'0 0.0
2017-Jan-13 21:33N 45°38' W 122°42'0 0.0
2017-Jan-13 20:33N 45°38' W 122°42'3 2.4
2017-Jan-13 19:32N 45°39' W 122°45'0 0.0
2017-Jan-13 18:33N 45°39' W 122°45'0 0.0
2017-Jan-13 17:33N 45°39' W 122°45'0 0.0
2017-Jan-13 16:33N 45°39' W 122°45'0 0.0
2017-Jan-13 15:33N 45°39' W 122°45'0 0.0
2017-Jan-13 14:33N 45°39' W 122°45'0 0.0
2017-Jan-13 13:33N 45°39' W 122°45'0 0.0
2017-Jan-13 12:30N 45°39' W 122°45'0 0.0
2017-Jan-13 11:33N 45°39' W 122°45'0 0.0
2017-Jan-13 10:33N 45°39' W 122°45'0 0.0
2017-Jan-13 09:33N 45°39' W 122°45'0 0.0
2017-Jan-13 08:33N 45°39' W 122°45'0 0.0
2017-Jan-13 07:33N 45°39' W 122°45'0 0.0
2017-Jan-13 06:30N 45°39' W 122°45'0 0.0
2017-Jan-13 05:33N 45°39' W 122°45'0 0.0
2017-Jan-13 04:30N 45°39' W 122°45'0 0.0
2017-Jan-13 03:30N 45°39' W 122°45'0 0.0
2017-Jan-13 02:33N 45°39' W 122°45'0 0.0
2017-Jan-13 01:30N 45°39' W 122°45'  

Dump ship's entire track history